sensor_id;sensor_type;location;lat;lon;timestamp;temperature;humidity
12688;DHT22;6408;59.388;17.798;2023-03-04T00:00:11;0.80;99.90
12688;DHT22;6408;59.388;17.798;2023-03-04T00:02:39;0.80;99.90
12688;DHT22;6408;59.388;17.798;2023-03-04T00:05:08;0.80;99.90
12688;DHT22;6408;59.388;17.798;2023-03-04T00:07:40;0.70;99.90
12688;DHT22;6408;59.388;17.798;2023-03-04T00:10:11;0.70;99.90
12688;DHT22;6408;59.388;17.798;2023-03-04T00:12:46;0.70;99.90
12688;DHT22;6408;59.388;17.798;2023-03-04T00:15:16;0.70;99.90
12688;DHT22;6408;59.388;17.798;2023-03-04T00:17:44;0.70;99.90
12688;DHT22;6408;59.388;17.798;2023-03-04T00:20:12;0.70;99.90
12688;DHT22;6408;59.388;17.798;2023-03-04T00:22:39;0.60;99.90
12688;DHT22;6408;59.388;17.798;2023-03-04T00:25:07;0.60;99.90
12688;DHT22;6408;59.388;17.798;2023-03-04T00:27:34;0.60;99.90
12688;DHT22;6408;59.388;17.798;2023-03-04T00:30:05;0.50;99.90
12688;DHT22;6408;59.388;17.798;2023-03-04T00:32:32;0.50;99.90
12688;DHT22;6408;59.388;17.798;2023-03-04T00:35:00;0.50;99.90
12688;DHT22;6408;59.388;17.798;2023-03-04T00:37:27;0.50;99.90
12688;DHT22;6408;59.388;17.798;2023-03-04T00:39:54;0.40;99.90
12688;DHT22;6408;59.388;17.798;2023-03-04T00:42:22;0.50;99.90
12688;DHT22;6408;59.388;17.798;2023-03-04T00:44:49;0.50;99.90
12688;DHT22;6408;59.388;17.798;2023-03-04T00:47:19;0.40;99.90
12688;DHT22;6408;59.388;17.798;2023-03-04T00:49:46;0.40;99.90
12688;DHT22;6408;59.388;17.798;2023-03-04T00:52:13;0.40;99.90
12688;DHT22;6408;59.388;17.798;2023-03-04T00:54:41;0.30;99.90
12688;DHT22;6408;59.388;17.798;2023-03-04T00:57:08;0.30;99.90
12688;DHT22;6408;59.388;17.798;2023-03-04T00:59:35;0.30;99.90
12688;DHT22;6408;59.388;17.798;2023-03-04T01:02:03;0.20;99.90
12688;DHT22;6408;59.388;17.798;2023-03-04T01:04:32;0.20;99.90
12688;DHT22;6408;59.388;17.798;2023-03-04T01:06:59;0.20;99.90
12688;DHT22;6408;59.388;17.798;2023-03-04T01:09:26;0.20;99.90
12688;DHT22;6408;59.388;17.798;2023-03-04T01:11:54;0.20;99.90
12688;DHT22;6408;59.388;17.798;2023-03-04T01:14:21;0.10;99.90
12688;DHT22;6408;59.388;17.798;2023-03-04T01:16:49;0.10;99.90
12688;DHT22;6408;59.388;17.798;2023-03-04T01:19:17;0.20;99.90
12688;DHT22;6408;59.388;17.798;2023-03-04T01:21:46;0.20;99.90
12688;DHT22;6408;59.388;17.798;2023-03-04T01:24:13;0.10;99.90
12688;DHT22;6408;59.388;17.798;2023-03-04T01:26:40;0.10;99.90
12688;DHT22;6408;59.388;17.798;2023-03-04T01:29:08;0.10;99.90
12688;DHT22;6408;59.388;17.798;2023-03-04T01:31:36;0.10;99.90
12688;DHT22;6408;59.388;17.798;2023-03-04T01:34:05;0.00;99.90
12688;DHT22;6408;59.388;17.798;2023-03-04T01:36:34;0.00;99.90
12688;DHT22;6408;59.388;17.798;2023-03-04T01:39:03;0.00;99.90
12688;DHT22;6408;59.388;17.798;2023-03-04T01:41:31;0.00;99.90
12688;DHT22;6408;59.388;17.798;2023-03-04T01:43:59;0.00;99.90
12688;DHT22;6408;59.388;17.798;2023-03-04T01:46:28;-0.10;99.90
12688;DHT22;6408;59.388;17.798;2023-03-04T01:48:55;-0.10;99.90
12688;DHT22;6408;59.388;17.798;2023-03-04T01:51:23;-0.20;99.90
12688;DHT22;6408;59.388;17.798;2023-03-04T01:53:51;-0.20;99.90
12688;DHT22;6408;59.388;17.798;2023-03-04T01:56:23;-0.20;99.90
12688;DHT22;6408;59.388;17.798;2023-03-04T01:59:15;-0.20;99.90
12688;DHT22;6408;59.388;17.798;2023-03-04T02:01:46;-0.20;99.90
12688;DHT22;6408;59.388;17.798;2023-03-04T02:04:15;-0.20;99.90
12688;DHT22;6408;59.388;17.798;2023-03-04T02:06:42;-0.30;99.90
12688;DHT22;6408;59.388;17.798;2023-03-04T02:09:10;-0.20;99.90
12688;DHT22;6408;59.388;17.798;2023-03-04T02:11:40;-0.30;99.90
12688;DHT22;6408;59.388;17.798;2023-03-04T02:14:09;-0.30;99.90
12688;DHT22;6408;59.388;17.798;2023-03-04T02:16:36;-0.30;99.90
12688;DHT22;6408;59.388;17.798;2023-03-04T02:19:08;-0.30;99.90
12688;DHT22;6408;59.388;17.798;2023-03-04T02:21:40;-0.30;99.90
12688;DHT22;6408;59.388;17.798;2023-03-04T02:24:12;-0.40;99.90
12688;DHT22;6408;59.388;17.798;2023-03-04T02:26:43;-0.40;99.90
12688;DHT22;6408;59.388;17.798;2023-03-04T02:29:13;-0.40;99.90
12688;DHT22;6408;59.388;17.798;2023-03-04T02:31:42;-0.50;99.90
12688;DHT22;6408;59.388;17.798;2023-03-04T02:34:12;-0.50;99.90
12688;DHT22;6408;59.388;17.798;2023-03-04T02:36:40;-0.50;99.90
12688;DHT22;6408;59.388;17.798;2023-03-04T02:39:12;-0.50;99.90
12688;DHT22;6408;59.388;17.798;2023-03-04T02:41:39;-0.50;99.90
12688;DHT22;6408;59.388;17.798;2023-03-04T02:44:15;-0.50;99.90
12688;DHT22;6408;59.388;17.798;2023-03-04T02:46:43;-0.50;99.90
12688;DHT22;6408;59.388;17.798;2023-03-04T02:49:11;-0.60;99.90
12688;DHT22;6408;59.388;17.798;2023-03-04T02:51:39;-0.50;99.90
12688;DHT22;6408;59.388;17.798;2023-03-04T02:54:14;-0.60;99.90
12688;DHT22;6408;59.388;17.798;2023-03-04T02:56:44;-0.50;99.90
12688;DHT22;6408;59.388;17.798;2023-03-04T02:59:14;-0.50;99.90
12688;DHT22;6408;59.388;17.798;2023-03-04T03:01:42;-0.50;99.90
12688;DHT22;6408;59.388;17.798;2023-03-04T03:04:09;-0.40;99.90
12688;DHT22;6408;59.388;17.798;2023-03-04T03:06:36;-0.50;99.90
12688;DHT22;6408;59.388;17.798;2023-03-04T03:09:04;-0.40;99.90
12688;DHT22;6408;59.388;17.798;2023-03-04T03:11:32;-0.40;99.90
12688;DHT22;6408;59.388;17.798;2023-03-04T03:13:59;-0.50;99.90
12688;DHT22;6408;59.388;17.798;2023-03-04T03:16:28;-0.50;99.90
12688;DHT22;6408;59.388;17.798;2023-03-04T03:18:56;-0.50;99.90
12688;DHT22;6408;59.388;17.798;2023-03-04T03:21:23;-0.60;99.90
12688;DHT22;6408;59.388;17.798;2023-03-04T03:23:51;-0.70;99.90
12688;DHT22;6408;59.388;17.798;2023-03-04T03:26:19;-0.60;99.90
12688;DHT22;6408;59.388;17.798;2023-03-04T03:28:46;-0.60;99.90
12688;DHT22;6408;59.388;17.798;2023-03-04T03:31:14;-0.70;99.90
12688;DHT22;6408;59.388;17.798;2023-03-04T03:33:42;-0.70;99.90
12688;DHT22;6408;59.388;17.798;2023-03-04T03:36:10;-0.80;99.90
12688;DHT22;6408;59.388;17.798;2023-03-04T03:38:37;-0.90;99.90
12688;DHT22;6408;59.388;17.798;2023-03-04T03:41:05;-0.90;99.90
12688;DHT22;6408;59.388;17.798;2023-03-04T03:43:32;-0.90;99.90
12688;DHT22;6408;59.388;17.798;2023-03-04T03:45:59;-1.00;99.90
12688;DHT22;6408;59.388;17.798;2023-03-04T03:48:27;-1.10;99.90
12688;DHT22;6408;59.388;17.798;2023-03-04T03:50:55;-1.10;99.90
12688;DHT22;6408;59.388;17.798;2023-03-04T03:53:23;-1.20;99.90
12688;DHT22;6408;59.388;17.798;2023-03-04T03:55:50;-1.30;99.90
12688;DHT22;6408;59.388;17.798;2023-03-04T03:58:18;-1.30;99.90
12688;DHT22;6408;59.388;17.798;2023-03-04T04:00:45;-1.40;99.90
12688;DHT22;6408;59.388;17.798;2023-03-04T04:03:14;-1.40;99.90
12688;DHT22;6408;59.388;17.798;2023-03-04T04:05:41;-1.40;99.90
12688;DHT22;6408;59.388;17.798;2023-03-04T04:08:12;-1.50;99.90
12688;DHT22;6408;59.388;17.798;2023-03-04T04:10:39;-1.50;99.90
12688;DHT22;6408;59.388;17.798;2023-03-04T04:13:07;-1.50;99.90
12688;DHT22;6408;59.388;17.798;2023-03-04T04:15:34;-1.60;99.90
12688;DHT22;6408;59.388;17.798;2023-03-04T04:18:03;-1.70;99.90
12688;DHT22;6408;59.388;17.798;2023-03-04T04:20:31;-1.70;99.90
12688;DHT22;6408;59.388;17.798;2023-03-04T04:22:58;-1.70;99.90
12688;DHT22;6408;59.388;17.798;2023-03-04T04:25:28;-1.70;99.90
12688;DHT22;6408;59.388;17.798;2023-03-04T04:27:55;-1.70;99.90
12688;DHT22;6408;59.388;17.798;2023-03-04T04:30:22;-1.80;99.90
12688;DHT22;6408;59.388;17.798;2023-03-04T04:32:50;-1.80;99.90
12688;DHT22;6408;59.388;17.798;2023-03-04T04:35:17;-1.90;99.90
12688;DHT22;6408;59.388;17.798;2023-03-04T04:37:44;-1.90;99.90
12688;DHT22;6408;59.388;17.798;2023-03-04T04:40:13;-1.80;99.90
12688;DHT22;6408;59.388;17.798;2023-03-04T04:42:42;-1.80;99.90
12688;DHT22;6408;59.388;17.798;2023-03-04T04:45:10;-1.90;99.90
12688;DHT22;6408;59.388;17.798;2023-03-04T04:47:37;-2.00;99.90
12688;DHT22;6408;59.388;17.798;2023-03-04T04:50:05;-2.00;99.90
12688;DHT22;6408;59.388;17.798;2023-03-04T04:52:33;-2.00;99.90
12688;DHT22;6408;59.388;17.798;2023-03-04T04:55:01;-2.00;99.90
12688;DHT22;6408;59.388;17.798;2023-03-04T04:57:28;-2.00;99.90
12688;DHT22;6408;59.388;17.798;2023-03-04T04:59:57;-2.00;99.90
12688;DHT22;6408;59.388;17.798;2023-03-04T05:02:24;-2.10;99.90
12688;DHT22;6408;59.388;17.798;2023-03-04T05:04:51;-2.20;99.90
12688;DHT22;6408;59.388;17.798;2023-03-04T05:07:18;-2.10;99.90
12688;DHT22;6408;59.388;17.798;2023-03-04T05:09:46;-2.20;99.90
12688;DHT22;6408;59.388;17.798;2023-03-04T05:12:13;-2.20;99.90
12688;DHT22;6408;59.388;17.798;2023-03-04T05:14:40;-2.20;99.90
12688;DHT22;6408;59.388;17.798;2023-03-04T05:17:23;-2.20;99.90
12688;DHT22;6408;59.388;17.798;2023-03-04T05:19:50;-2.20;99.90
12688;DHT22;6408;59.388;17.798;2023-03-04T05:22:18;-2.30;99.90
12688;DHT22;6408;59.388;17.798;2023-03-04T05:24:45;-2.30;99.90
12688;DHT22;6408;59.388;17.798;2023-03-04T05:27:13;-2.30;99.90
12688;DHT22;6408;59.388;17.798;2023-03-04T05:29:40;-2.40;99.90
12688;DHT22;6408;59.388;17.798;2023-03-04T05:32:09;-2.40;99.90
12688;DHT22;6408;59.388;17.798;2023-03-04T05:34:38;-2.40;99.90
12688;DHT22;6408;59.388;17.798;2023-03-04T05:37:05;-2.40;99.90
12688;DHT22;6408;59.388;17.798;2023-03-04T05:39:32;-2.50;99.90
12688;DHT22;6408;59.388;17.798;2023-03-04T05:42:00;-2.50;99.90
12688;DHT22;6408;59.388;17.798;2023-03-04T05:44:28;-2.50;99.90
12688;DHT22;6408;59.388;17.798;2023-03-04T05:46:55;-2.50;99.90
12688;DHT22;6408;59.388;17.798;2023-03-04T05:49:22;-2.50;99.90
12688;DHT22;6408;59.388;17.798;2023-03-04T05:51:52;-2.40;99.90
12688;DHT22;6408;59.388;17.798;2023-03-04T05:54:19;-2.40;99.90
12688;DHT22;6408;59.388;17.798;2023-03-04T05:56:47;-2.50;99.90
12688;DHT22;6408;59.388;17.798;2023-03-04T05:59:14;-2.40;99.90
12688;DHT22;6408;59.388;17.798;2023-03-04T06:01:45;-2.40;99.90
12688;DHT22;6408;59.388;17.798;2023-03-04T06:04:12;-2.40;99.90
12688;DHT22;6408;59.388;17.798;2023-03-04T06:06:39;-2.40;99.90
12688;DHT22;6408;59.388;17.798;2023-03-04T06:09:08;-2.30;99.90
12688;DHT22;6408;59.388;17.798;2023-03-04T06:11:35;-2.30;99.90
12688;DHT22;6408;59.388;17.798;2023-03-04T06:14:03;-2.10;99.90
12688;DHT22;6408;59.388;17.798;2023-03-04T06:16:30;-0.80;99.90
12688;DHT22;6408;59.388;17.798;2023-03-04T06:18:57;0.50;99.90
12688;DHT22;6408;59.388;17.798;2023-03-04T06:21:24;0.70;99.90
12688;DHT22;6408;59.388;17.798;2023-03-04T06:23:52;0.30;99.90
12688;DHT22;6408;59.388;17.798;2023-03-04T06:26:20;0.40;99.90
12688;DHT22;6408;59.388;17.798;2023-03-04T06:28:48;-0.20;99.90
12688;DHT22;6408;59.388;17.798;2023-03-04T06:31:16;-0.90;99.90
12688;DHT22;6408;59.388;17.798;2023-03-04T06:33:43;-1.30;99.90
12688;DHT22;6408;59.388;17.798;2023-03-04T06:36:10;-1.50;99.90
12688;DHT22;6408;59.388;17.798;2023-03-04T06:38:38;-1.70;99.90
12688;DHT22;6408;59.388;17.798;2023-03-04T06:41:06;-1.80;99.90
12688;DHT22;6408;59.388;17.798;2023-03-04T06:43:35;-1.90;99.90
12688;DHT22;6408;59.388;17.798;2023-03-04T06:46:03;-2.00;99.90
12688;DHT22;6408;59.388;17.798;2023-03-04T06:48:30;-2.00;99.90
12688;DHT22;6408;59.388;17.798;2023-03-04T06:50:57;-2.10;99.90
12688;DHT22;6408;59.388;17.798;2023-03-04T06:53:25;-2.10;99.90
12688;DHT22;6408;59.388;17.798;2023-03-04T06:55:53;-2.00;99.90
12688;DHT22;6408;59.388;17.798;2023-03-04T06:58:20;-2.00;99.90
12688;DHT22;6408;59.388;17.798;2023-03-04T07:00:48;-1.70;99.90
12688;DHT22;6408;59.388;17.798;2023-03-04T07:03:16;-0.70;99.90
12688;DHT22;6408;59.388;17.798;2023-03-04T07:05:44;0.00;99.90
12688;DHT22;6408;59.388;17.798;2023-03-04T07:08:11;0.80;99.90
12688;DHT22;6408;59.388;17.798;2023-03-04T07:10:38;-0.20;99.90
12688;DHT22;6408;59.388;17.798;2023-03-04T07:13:05;-0.50;99.90
12688;DHT22;6408;59.388;17.798;2023-03-04T07:15:32;-1.10;99.90
12688;DHT22;6408;59.388;17.798;2023-03-04T07:18:02;-1.50;99.90
12688;DHT22;6408;59.388;17.798;2023-03-04T07:20:29;-1.60;99.90
12688;DHT22;6408;59.388;17.798;2023-03-04T07:22:56;-1.70;99.90
12688;DHT22;6408;59.388;17.798;2023-03-04T07:25:24;-1.60;99.90
12688;DHT22;6408;59.388;17.798;2023-03-04T07:27:51;-1.40;99.90
12688;DHT22;6408;59.388;17.798;2023-03-04T07:30:18;-1.20;99.90
12688;DHT22;6408;59.388;17.798;2023-03-04T07:32:46;-1.00;99.90
12688;DHT22;6408;59.388;17.798;2023-03-04T07:35:14;-0.80;99.90
12688;DHT22;6408;59.388;17.798;2023-03-04T07:37:42;-0.90;99.90
12688;DHT22;6408;59.388;17.798;2023-03-04T07:40:10;-1.00;99.90
12688;DHT22;6408;59.388;17.798;2023-03-04T07:42:38;-1.30;99.90
12688;DHT22;6408;59.388;17.798;2023-03-04T07:45:07;-1.40;99.90
12688;DHT22;6408;59.388;17.798;2023-03-04T07:47:34;-1.40;99.90
12688;DHT22;6408;59.388;17.798;2023-03-04T07:50:01;-1.50;99.90
12688;DHT22;6408;59.388;17.798;2023-03-04T07:52:30;-1.50;99.90
12688;DHT22;6408;59.388;17.798;2023-03-04T07:54:58;-1.50;99.90
12688;DHT22;6408;59.388;17.798;2023-03-04T07:57:25;-1.50;99.90
12688;DHT22;6408;59.388;17.798;2023-03-04T07:59:53;-1.40;99.90
12688;DHT22;6408;59.388;17.798;2023-03-04T08:02:21;-1.20;99.90
12688;DHT22;6408;59.388;17.798;2023-03-04T08:04:48;-1.00;99.90
12688;DHT22;6408;59.388;17.798;2023-03-04T08:07:16;-0.70;99.90
12688;DHT22;6408;59.388;17.798;2023-03-04T08:09:44;-0.50;99.90
12688;DHT22;6408;59.388;17.798;2023-03-04T08:12:11;-0.50;99.90
12688;DHT22;6408;59.388;17.798;2023-03-04T08:14:39;-0.60;99.90
12688;DHT22;6408;59.388;17.798;2023-03-04T08:17:06;-0.40;99.90
12688;DHT22;6408;59.388;17.798;2023-03-04T08:19:34;1.40;99.90
12688;DHT22;6408;59.388;17.798;2023-03-04T08:22:02;2.70;99.90
12688;DHT22;6408;59.388;17.798;2023-03-04T08:24:30;3.80;99.90
12688;DHT22;6408;59.388;17.798;2023-03-04T08:26:59;3.70;99.90
12688;DHT22;6408;59.388;17.798;2023-03-04T08:29:27;3.70;99.90
12688;DHT22;6408;59.388;17.798;2023-03-04T08:31:54;3.00;99.90
12688;DHT22;6408;59.388;17.798;2023-03-04T08:34:23;2.10;99.90
12688;DHT22;6408;59.388;17.798;2023-03-04T08:36:51;2.80;99.90
12688;DHT22;6408;59.388;17.798;2023-03-04T08:39:18;2.90;99.90
12688;DHT22;6408;59.388;17.798;2023-03-04T08:41:46;3.60;99.90
12688;DHT22;6408;59.388;17.798;2023-03-04T08:44:16;4.20;99.90
12688;DHT22;6408;59.388;17.798;2023-03-04T08:46:45;2.90;99.90
12688;DHT22;6408;59.388;17.798;2023-03-04T08:49:13;2.70;99.90
12688;DHT22;6408;59.388;17.798;2023-03-04T08:51:41;1.70;99.90
12688;DHT22;6408;59.388;17.798;2023-03-04T08:54:10;1.70;99.90
12688;DHT22;6408;59.388;17.798;2023-03-04T08:56:38;1.70;99.90
12688;DHT22;6408;59.388;17.798;2023-03-04T08:59:06;1.10;99.90
12688;DHT22;6408;59.388;17.798;2023-03-04T09:01:36;0.80;99.90
12688;DHT22;6408;59.388;17.798;2023-03-04T09:04:04;0.30;99.90
12688;DHT22;6408;59.388;17.798;2023-03-04T09:06:31;0.00;99.90
12688;DHT22;6408;59.388;17.798;2023-03-04T09:08:59;0.00;99.90
12688;DHT22;6408;59.388;17.798;2023-03-04T09:11:27;-0.20;99.90
12688;DHT22;6408;59.388;17.798;2023-03-04T09:13:55;-0.20;99.90
12688;DHT22;6408;59.388;17.798;2023-03-04T09:16:22;-0.30;99.90
12688;DHT22;6408;59.388;17.798;2023-03-04T09:18:52;-0.10;99.90
12688;DHT22;6408;59.388;17.798;2023-03-04T09:21:19;0.20;99.90
12688;DHT22;6408;59.388;17.798;2023-03-04T09:23:47;0.70;99.90
12688;DHT22;6408;59.388;17.798;2023-03-04T09:26:18;1.50;99.90
12688;DHT22;6408;59.388;17.798;2023-03-04T09:28:49;2.40;99.90
12688;DHT22;6408;59.388;17.798;2023-03-04T09:31:17;3.30;99.90
12688;DHT22;6408;59.388;17.798;2023-03-04T09:33:45;5.00;99.90
12688;DHT22;6408;59.388;17.798;2023-03-04T09:36:15;7.50;99.90
12688;DHT22;6408;59.388;17.798;2023-03-04T09:38:43;8.90;99.90
12688;DHT22;6408;59.388;17.798;2023-03-04T09:41:15;10.90;97.90
12688;DHT22;6408;59.388;17.798;2023-03-04T09:43:45;11.70;94.70
12688;DHT22;6408;59.388;17.798;2023-03-04T09:46:15;12.20;92.60
12688;DHT22;6408;59.388;17.798;2023-03-04T09:48:46;13.80;91.80
12688;DHT22;6408;59.388;17.798;2023-03-04T09:51:21;14.50;88.50
12688;DHT22;6408;59.388;17.798;2023-03-04T09:54:00;13.60;86.10
12688;DHT22;6408;59.388;17.798;2023-03-04T09:56:33;13.80;86.10
12688;DHT22;6408;59.388;17.798;2023-03-04T09:59:08;14.70;83.20
12688;DHT22;6408;59.388;17.798;2023-03-04T10:01:41;14.90;81.80
12688;DHT22;6408;59.388;17.798;2023-03-04T10:04:14;14.70;82.60
12688;DHT22;6408;59.388;17.798;2023-03-04T10:06:46;16.00;80.30
12688;DHT22;6408;59.388;17.798;2023-03-04T10:09:21;15.30;79.40
12688;DHT22;6408;59.388;17.798;2023-03-04T10:11:56;16.30;80.90
12688;DHT22;6408;59.388;17.798;2023-03-04T10:14:38;15.70;79.40
12688;DHT22;6408;59.388;17.798;2023-03-04T10:17:12;15.00;79.10
12688;DHT22;6408;59.388;17.798;2023-03-04T10:19:51;15.00;78.10
12688;DHT22;6408;59.388;17.798;2023-03-04T10:22:28;12.50;80.10
12688;DHT22;6408;59.388;17.798;2023-03-04T10:25:00;13.60;79.40
12688;DHT22;6408;59.388;17.798;2023-03-04T10:27:28;11.80;79.80
12688;DHT22;6408;59.388;17.798;2023-03-04T10:29:58;10.40;83.30
12688;DHT22;6408;59.388;17.798;2023-03-04T10:32:26;11.30;83.90
12688;DHT22;6408;59.388;17.798;2023-03-04T10:34:54;11.80;82.30
12688;DHT22;6408;59.388;17.798;2023-03-04T10:37:23;12.50;83.00
12688;DHT22;6408;59.388;17.798;2023-03-04T10:40:18;13.50;81.40
12688;DHT22;6408;59.388;17.798;2023-03-04T10:42:48;11.60;82.30
12688;DHT22;6408;59.388;17.798;2023-03-04T10:45:22;11.20;83.50
12688;DHT22;6408;59.388;17.798;2023-03-04T10:47:54;10.10;83.40
12688;DHT22;6408;59.388;17.798;2023-03-04T10:50:24;8.60;89.00
12688;DHT22;6408;59.388;17.798;2023-03-04T10:52:54;8.50;88.20
12688;DHT22;6408;59.388;17.798;2023-03-04T10:55:24;10.40;84.80
12688;DHT22;6408;59.388;17.798;2023-03-04T10:57:55;7.60;89.20
12688;DHT22;6408;59.388;17.798;2023-03-04T11:00:29;6.40;91.00
12688;DHT22;6408;59.388;17.798;2023-03-04T11:03:23;9.60;89.40
12688;DHT22;6408;59.388;17.798;2023-03-04T11:08:57;9.20;87.90
12688;DHT22;6408;59.388;17.798;2023-03-04T11:11:30;10.30;86.30
12688;DHT22;6408;59.388;17.798;2023-03-04T11:14:01;8.80;88.10
12688;DHT22;6408;59.388;17.798;2023-03-04T11:16:31;9.00;89.60
12688;DHT22;6408;59.388;17.798;2023-03-04T11:19:03;11.80;86.70
12688;DHT22;6408;59.388;17.798;2023-03-04T11:21:36;10.90;84.60
12688;DHT22;6408;59.388;17.798;2023-03-04T11:24:12;8.00;89.60
12688;DHT22;6408;59.388;17.798;2023-03-04T11:26:44;6.40;91.10
12688;DHT22;6408;59.388;17.798;2023-03-04T11:29:14;5.60;91.90
12688;DHT22;6408;59.388;17.798;2023-03-04T11:31:48;6.80;91.70
12688;DHT22;6408;59.388;17.798;2023-03-04T11:34:27;8.90;90.00
12688;DHT22;6408;59.388;17.798;2023-03-04T11:36:58;8.60;88.10
12688;DHT22;6408;59.388;17.798;2023-03-04T11:39:34;9.30;88.80
12688;DHT22;6408;59.388;17.798;2023-03-04T11:42:12;7.70;90.10
12688;DHT22;6408;59.388;17.798;2023-03-04T11:44:43;7.60;91.00
12688;DHT22;6408;59.388;17.798;2023-03-04T11:47:35;9.00;90.80
12688;DHT22;6408;59.388;17.798;2023-03-04T11:50:19;8.30;90.10
12688;DHT22;6408;59.388;17.798;2023-03-04T11:53:01;6.70;91.30
12688;DHT22;6408;59.388;17.798;2023-03-04T11:55:40;5.30;92.20
12688;DHT22;6408;59.388;17.798;2023-03-04T12:01:15;3.60;94.60
12688;DHT22;6408;59.388;17.798;2023-03-04T12:03:59;3.60;94.60
12688;DHT22;6408;59.388;17.798;2023-03-04T12:06:37;3.40;94.70
12688;DHT22;6408;59.388;17.798;2023-03-04T12:09:20;3.20;95.30
12688;DHT22;6408;59.388;17.798;2023-03-04T12:11:59;3.20;95.20
12688;DHT22;6408;59.388;17.798;2023-03-04T12:14:33;3.20;95.50
12688;DHT22;6408;59.388;17.798;2023-03-04T12:17:30;3.40;95.80
12688;DHT22;6408;59.388;17.798;2023-03-04T12:20:16;3.30;95.90
12688;DHT22;6408;59.388;17.798;2023-03-04T12:22:51;3.10;95.60
12688;DHT22;6408;59.388;17.798;2023-03-04T12:25:43;3.00;95.70
12688;DHT22;6408;59.388;17.798;2023-03-04T12:28:33;3.00;95.80
12688;DHT22;6408;59.388;17.798;2023-03-04T12:31:19;3.00;95.80
12688;DHT22;6408;59.388;17.798;2023-03-04T12:37:10;2.80;96.00
12688;DHT22;6408;59.388;17.798;2023-03-04T12:39:40;2.80;95.80
12688;DHT22;6408;59.388;17.798;2023-03-04T12:42:21;2.70;96.20
12688;DHT22;6408;59.388;17.798;2023-03-04T12:45:02;2.70;96.60
12688;DHT22;6408;59.388;17.798;2023-03-04T12:47:42;2.60;96.50
12688;DHT22;6408;59.388;17.798;2023-03-04T12:50:35;2.70;97.00
12688;DHT22;6408;59.388;17.798;2023-03-04T12:53:18;2.60;97.20
12688;DHT22;6408;59.388;17.798;2023-03-04T12:55:49;2.60;97.20
12688;DHT22;6408;59.388;17.798;2023-03-04T12:58:20;2.60;97.40
12688;DHT22;6408;59.388;17.798;2023-03-04T13:00:54;2.60;97.50
12688;DHT22;6408;59.388;17.798;2023-03-04T13:03:30;2.70;97.30
12688;DHT22;6408;59.388;17.798;2023-03-04T13:08:55;2.50;98.70
12688;DHT22;6408;59.388;17.798;2023-03-04T13:14:33;2.70;98.90
12688;DHT22;6408;59.388;17.798;2023-03-04T13:17:38;2.70;99.10
12688;DHT22;6408;59.388;17.798;2023-03-04T13:20:24;2.60;99.70
12688;DHT22;6408;59.388;17.798;2023-03-04T13:22:58;2.60;99.90
12688;DHT22;6408;59.388;17.798;2023-03-04T13:25:38;2.60;99.90
12688;DHT22;6408;59.388;17.798;2023-03-04T13:28:19;2.70;99.90
12688;DHT22;6408;59.388;17.798;2023-03-04T13:31:12;2.50;99.90
12688;DHT22;6408;59.388;17.798;2023-03-04T13:39:34;2.10;99.90
12688;DHT22;6408;59.388;17.798;2023-03-04T13:42:04;2.00;99.90
12688;DHT22;6408;59.388;17.798;2023-03-04T13:44:56;1.80;99.90
12688;DHT22;6408;59.388;17.798;2023-03-04T13:47:48;1.80;99.90
12688;DHT22;6408;59.388;17.798;2023-03-04T13:50:40;1.90;99.90
12688;DHT22;6408;59.388;17.798;2023-03-04T13:53:40;2.00;99.90
12688;DHT22;6408;59.388;17.798;2023-03-04T13:56:28;2.00;99.90
12688;DHT22;6408;59.388;17.798;2023-03-04T13:59:19;2.00;99.90
12688;DHT22;6408;59.388;17.798;2023-03-04T14:01:56;2.10;99.90
12688;DHT22;6408;59.388;17.798;2023-03-04T14:04:28;2.10;99.90
12688;DHT22;6408;59.388;17.798;2023-03-04T14:06:57;2.20;99.90
12688;DHT22;6408;59.388;17.798;2023-03-04T14:09:28;2.20;99.90
12688;DHT22;6408;59.388;17.798;2023-03-04T14:11:57;2.10;99.90
12688;DHT22;6408;59.388;17.798;2023-03-04T14:14:30;2.00;99.90
12688;DHT22;6408;59.388;17.798;2023-03-04T14:17:01;1.90;99.90
12688;DHT22;6408;59.388;17.798;2023-03-04T14:19:31;1.90;99.90
12688;DHT22;6408;59.388;17.798;2023-03-04T14:22:00;1.80;99.90
12688;DHT22;6408;59.388;17.798;2023-03-04T14:24:30;1.80;99.90
12688;DHT22;6408;59.388;17.798;2023-03-04T14:27:10;1.90;99.90
12688;DHT22;6408;59.388;17.798;2023-03-04T14:29:38;1.70;99.90
12688;DHT22;6408;59.388;17.798;2023-03-04T14:32:06;1.80;99.90
12688;DHT22;6408;59.388;17.798;2023-03-04T14:34:36;1.70;99.90
12688;DHT22;6408;59.388;17.798;2023-03-04T14:37:18;1.70;99.90
12688;DHT22;6408;59.388;17.798;2023-03-04T14:39:50;1.60;99.90
12688;DHT22;6408;59.388;17.798;2023-03-04T14:42:21;1.60;99.90
12688;DHT22;6408;59.388;17.798;2023-03-04T14:44:50;1.60;99.90
12688;DHT22;6408;59.388;17.798;2023-03-04T14:47:22;1.60;99.90
12688;DHT22;6408;59.388;17.798;2023-03-04T14:49:51;1.70;99.90
12688;DHT22;6408;59.388;17.798;2023-03-04T14:52:43;1.70;99.90
12688;DHT22;6408;59.388;17.798;2023-03-04T14:55:22;1.80;99.90
12688;DHT22;6408;59.388;17.798;2023-03-04T14:57:52;1.80;99.90
12688;DHT22;6408;59.388;17.798;2023-03-04T15:00:32;1.80;99.90
12688;DHT22;6408;59.388;17.798;2023-03-04T15:03:01;1.90;99.90
12688;DHT22;6408;59.388;17.798;2023-03-04T15:05:30;1.90;99.90
12688;DHT22;6408;59.388;17.798;2023-03-04T15:08:00;1.90;99.90
12688;DHT22;6408;59.388;17.798;2023-03-04T15:10:32;1.90;99.90
12688;DHT22;6408;59.388;17.798;2023-03-04T15:13:06;2.00;99.90
12688;DHT22;6408;59.388;17.798;2023-03-04T15:15:39;1.90;99.90
12688;DHT22;6408;59.388;17.798;2023-03-04T15:18:21;2.00;99.90
12688;DHT22;6408;59.388;17.798;2023-03-04T15:20:58;1.90;99.90
12688;DHT22;6408;59.388;17.798;2023-03-04T15:23:26;1.90;99.90
12688;DHT22;6408;59.388;17.798;2023-03-04T15:25:57;1.80;99.90
12688;DHT22;6408;59.388;17.798;2023-03-04T15:28:31;1.80;99.90
12688;DHT22;6408;59.388;17.798;2023-03-04T15:30:59;1.80;99.90
12688;DHT22;6408;59.388;17.798;2023-03-04T15:33:26;1.80;99.90
12688;DHT22;6408;59.388;17.798;2023-03-04T15:35:57;1.70;99.90
12688;DHT22;6408;59.388;17.798;2023-03-04T15:38:26;1.70;99.90
12688;DHT22;6408;59.388;17.798;2023-03-04T15:40:56;1.70;99.90
12688;DHT22;6408;59.388;17.798;2023-03-04T15:43:24;1.60;99.90
12688;DHT22;6408;59.388;17.798;2023-03-04T15:45:52;1.60;99.90
12688;DHT22;6408;59.388;17.798;2023-03-04T15:48:20;1.50;99.90
12688;DHT22;6408;59.388;17.798;2023-03-04T15:50:49;1.50;99.90
12688;DHT22;6408;59.388;17.798;2023-03-04T15:53:26;1.50;99.90
12688;DHT22;6408;59.388;17.798;2023-03-04T15:55:56;1.40;99.90
12688;DHT22;6408;59.388;17.798;2023-03-04T15:58:24;1.50;99.90
12688;DHT22;6408;59.388;17.798;2023-03-04T16:00:52;1.40;99.90
12688;DHT22;6408;59.388;17.798;2023-03-04T16:03:21;1.50;99.90
12688;DHT22;6408;59.388;17.798;2023-03-04T16:05:50;1.40;99.90
12688;DHT22;6408;59.388;17.798;2023-03-04T16:08:19;1.40;99.90
12688;DHT22;6408;59.388;17.798;2023-03-04T16:10:50;1.30;99.90
12688;DHT22;6408;59.388;17.798;2023-03-04T16:13:20;1.30;99.90
12688;DHT22;6408;59.388;17.798;2023-03-04T16:15:48;1.30;99.90
12688;DHT22;6408;59.388;17.798;2023-03-04T16:18:16;1.30;99.90
12688;DHT22;6408;59.388;17.798;2023-03-04T16:20:45;1.30;99.90